createdAt,value
2023-05-14T00:01:19.617Z,56.60
2023-05-14T00:03:46.145Z,57.80
2023-05-14T00:06:12.818Z,62.80
2023-05-14T00:08:39.340Z,74.40
2023-05-14T00:11:05.897Z,76.00
2023-05-14T00:13:32.471Z,71.20
2023-05-14T00:15:58.966Z,84.60
2023-05-14T00:18:25.626Z,72.30
2023-05-14T00:20:54.761Z,54.90
2023-05-14T00:23:22.583Z,44.70
2023-05-14T00:25:49.632Z,62.00
2023-05-14T00:28:16.796Z,61.60
2023-05-14T00:30:44.683Z,58.50
2023-05-14T00:33:11.382Z,43.50
2023-05-14T00:35:38.001Z,55.50
2023-05-14T00:38:05.011Z,50.10
2023-05-14T00:40:31.604Z,47.10
2023-05-14T00:42:58.133Z,56.00
2023-05-14T00:45:25.626Z,53.50
2023-05-14T00:47:53.474Z,58.40
2023-05-14T00:50:21.127Z,54.50
2023-05-14T00:52:47.979Z,58.10
2023-05-14T00:55:16.978Z,61.50
2023-05-14T00:57:44.262Z,50.10
2023-05-14T01:00:11.339Z,48.90
2023-05-14T01:02:38.103Z,49.80
2023-05-14T01:05:05.690Z,56.20
2023-05-14T01:07:55.263Z,44.00
2023-05-14T01:10:39.080Z,41.10
2023-05-14T01:13:21.848Z,39.80
2023-05-14T01:15:49.237Z,35.80
2023-05-14T01:18:18.288Z,39.40
2023-05-14T01:20:45.960Z,35.70
2023-05-14T01:23:12.457Z,34.50
2023-05-14T01:25:38.981Z,40.50
2023-05-14T01:28:15.393Z,36.90
2023-05-14T01:30:57.343Z,33.40
2023-05-14T01:33:27.644Z,33.20
2023-05-14T01:35:54.970Z,30.90
2023-05-14T01:38:23.338Z,27.70
2023-05-14T01:40:50.822Z,29.20
2023-05-14T01:43:18.750Z,32.20
2023-05-14T01:45:45.534Z,28.80
2023-05-14T01:48:12.565Z,29.10
2023-05-14T01:50:39.156Z,29.10
2023-05-14T01:53:05.789Z,30.70
2023-05-14T01:55:32.322Z,31.40
2023-05-14T01:57:59.007Z,30.20
2023-05-14T02:00:26.268Z,32.80
2023-05-14T02:02:53.163Z,34.40
2023-05-14T02:05:19.817Z,32.10
2023-05-14T02:07:46.414Z,31.60
2023-05-14T02:10:13.316Z,31.40
2023-05-14T02:12:39.925Z,33.30
2023-05-14T02:15:08.917Z,33.00
2023-05-14T02:17:39.190Z,25.10
2023-05-14T02:20:06.411Z,32.50
2023-05-14T02:22:33.061Z,28.30
2023-05-14T02:24:59.562Z,28.90
2023-05-14T02:27:26.135Z,28.30
2023-05-14T02:29:52.852Z,26.20
2023-05-14T02:32:19.497Z,27.90
2023-05-14T02:34:46.076Z,30.00
2023-05-14T02:37:12.649Z,25.50
2023-05-14T02:39:39.140Z,25.60
2023-05-14T02:42:06.988Z,29.50
2023-05-14T02:44:33.688Z,27.10
2023-05-14T02:47:00.252Z,24.00
2023-05-14T02:49:26.783Z,26.40
2023-05-14T02:51:54.350Z,30.00
2023-05-14T02:54:20.927Z,28.10
2023-05-14T02:56:47.574Z,28.40
2023-05-14T02:59:14.369Z,24.30
2023-05-14T03:01:41.425Z,26.90
2023-05-14T03:04:08.645Z,26.90
2023-05-14T03:06:35.264Z,31.40
2023-05-14T03:09:01.810Z,24.50
2023-05-14T03:11:28.421Z,25.20
2023-05-14T03:13:54.950Z,25.30
2023-05-14T03:16:21.497Z,24.60
2023-05-14T03:18:48.142Z,22.80
2023-05-14T03:21:14.803Z,26.80
2023-05-14T03:23:41.517Z,24.60
2023-05-14T03:26:13.955Z,24.70
2023-05-14T03:28:40.838Z,22.10
2023-05-14T03:31:07.466Z,19.80
2023-05-14T03:33:34.074Z,22.30
2023-05-14T03:36:00.630Z,19.40
2023-05-14T03:38:27.205Z,23.10
2023-05-14T03:40:53.712Z,20.20
2023-05-14T03:43:20.356Z,24.10
2023-05-14T03:45:52.257Z,22.70
2023-05-14T03:48:19.772Z,19.40
2023-05-14T03:50:46.908Z,20.20
2023-05-14T03:53:13.524Z,16.90
2023-05-14T03:55:40.138Z,18.90
2023-05-14T03:58:14.360Z,16.70
2023-05-14T04:00:44.109Z,16.50
2023-05-14T04:03:11.263Z,20.40
2023-05-14T04:05:37.900Z,17.70
2023-05-14T04:08:04.587Z,17.20
2023-05-14T04:10:32.022Z,17.70
2023-05-14T04:12:59.505Z,16.40
2023-05-14T04:15:31.026Z,17.30
2023-05-14T04:17:57.709Z,18.80
2023-05-14T04:20:24.475Z,17.50
2023-05-14T04:22:51.171Z,17.30
2023-05-14T04:25:18.508Z,14.30
2023-05-14T04:27:45.304Z,15.90
2023-05-14T04:30:12.486Z,15.00
2023-05-14T04:32:39.230Z,18.20
2023-05-14T04:35:06.642Z,14.20
2023-05-14T04:37:33.365Z,17.50
2023-05-14T04:40:00.910Z,13.50
2023-05-14T04:42:27.545Z,14.80
2023-05-14T04:44:54.033Z,13.60
2023-05-14T04:47:21.125Z,17.50
2023-05-14T04:49:47.841Z,13.60
2023-05-14T04:52:14.365Z,15.70
2023-05-14T04:54:41.060Z,16.90
2023-05-14T04:57:07.598Z,15.20
2023-05-14T04:59:34.185Z,16.00
2023-05-14T05:02:00.699Z,16.10
2023-05-14T05:04:27.794Z,16.70
2023-05-14T05:06:54.305Z,19.20
2023-05-14T05:09:21.285Z,16.80
2023-05-14T05:11:47.816Z,15.90
2023-05-14T05:14:14.367Z,12.60
2023-05-14T05:16:40.972Z,16.70
2023-05-14T05:19:07.588Z,11.90
2023-05-14T05:21:34.799Z,11.80
2023-05-14T05:24:01.275Z,19.70
2023-05-14T05:26:28.091Z,14.40
2023-05-14T05:28:54.656Z,13.60
2023-05-14T05:31:21.268Z,17.30
2023-05-14T05:33:48.100Z,12.20
2023-05-14T05:36:14.670Z,14.10
2023-05-14T05:38:41.357Z,16.40
2023-05-14T05:41:08.073Z,13.20
2023-05-14T05:43:34.713Z,12.80
2023-05-14T05:46:01.617Z,16.20
2023-05-14T05:48:28.321Z,12.40
2023-05-14T05:50:55.126Z,10.10
2023-05-14T05:53:21.766Z,12.40
2023-05-14T05:55:48.371Z,17.70
2023-05-14T05:58:17.155Z,12.00
2023-05-14T06:00:44.009Z,14.40
2023-05-14T06:03:11.303Z,12.00
2023-05-14T06:05:38.060Z,16.10
2023-05-14T06:08:05.101Z,11.40
2023-05-14T06:10:31.980Z,13.10
2023-05-14T06:12:58.531Z,12.10
2023-05-14T06:15:25.129Z,9.80
2023-05-14T06:17:51.886Z,10.10
2023-05-14T06:20:19.086Z,11.20
2023-05-14T06:22:45.718Z,13.00
2023-05-14T06:25:12.365Z,12.30
2023-05-14T06:27:38.950Z,11.40
2023-05-14T06:30:07.015Z,11.70
2023-05-14T06:32:33.603Z,12.80
2023-05-14T06:35:00.188Z,9.70
2023-05-14T06:37:26.792Z,11.00
2023-05-14T06:39:54.750Z,9.50
2023-05-14T06:42:23.031Z,8.10
2023-05-14T06:44:49.568Z,8.80
2023-05-14T06:47:16.205Z,10.70
2023-05-14T06:49:42.801Z,8.70
2023-05-14T06:52:09.336Z,7.40
2023-05-14T06:54:36.020Z,12.50
2023-05-14T06:57:02.618Z,12.60
2023-05-14T06:59:29.309Z,9.00
2023-05-14T07:01:55.938Z,8.60
2023-05-14T07:04:22.636Z,8.40
2023-05-14T07:06:49.365Z,6.90
2023-05-14T07:09:16.528Z,8.10
2023-05-14T07:11:43.475Z,7.80
2023-05-14T07:14:10.057Z,11.30
2023-05-14T07:16:37.109Z,7.30
2023-05-14T07:19:03.741Z,10.00
2023-05-14T07:21:30.355Z,6.70
2023-05-14T07:23:56.938Z,11.50
2023-05-14T07:26:24.579Z,7.70
2023-05-14T07:28:51.297Z,4.60
2023-05-14T07:31:17.934Z,5.80
2023-05-14T07:33:47.507Z,4.60
2023-05-14T07:38:40.774Z,6.70
2023-05-14T07:41:07.891Z,8.50
2023-05-14T07:43:34.651Z,6.80
2023-05-14T07:46:01.220Z,6.50
2023-05-14T07:48:27.827Z,6.00
2023-05-14T07:50:54.617Z,4.40
2023-05-14T07:53:22.006Z,6.10
2023-05-14T07:55:49.285Z,3.50
2023-05-14T07:58:16.752Z,4.50
2023-05-14T08:00:43.538Z,6.10
2023-05-14T08:03:10.435Z,5.10
2023-05-14T08:05:39.621Z,5.10
2023-05-14T08:08:06.612Z,5.40
2023-05-14T08:10:33.217Z,3.50
2023-05-14T08:12:59.785Z,7.40
2023-05-14T08:15:27.831Z,6.40
2023-05-14T08:17:54.952Z,5.20
2023-05-14T08:20:22.218Z,10.00
2023-05-14T08:22:48.964Z,5.20
2023-05-14T08:25:15.665Z,4.60
2023-05-14T08:27:42.238Z,4.90
2023-05-14T08:30:09.209Z,4.70
2023-05-14T08:32:35.857Z,7.20
2023-05-14T08:35:02.502Z,5.80
2023-05-14T08:37:29.084Z,4.40
2023-05-14T08:39:56.244Z,7.40
2023-05-14T08:42:24.724Z,5.50
2023-05-14T08:45:00.908Z,5.40
2023-05-14T08:47:30.237Z,6.20
2023-05-14T08:52:35.042Z,6.30
2023-05-14T08:55:05.592Z,8.70
2023-05-14T08:57:33.316Z,3.80
2023-05-14T09:00:00.423Z,5.20
2023-05-14T09:02:31.550Z,4.20
2023-05-14T09:05:00.101Z,5.70
2023-05-14T09:07:27.544Z,4.80
2023-05-14T09:09:54.988Z,5.80
2023-05-14T09:12:22.135Z,7.80
2023-05-14T09:14:49.788Z,3.30
2023-05-14T09:17:17.432Z,4.60
2023-05-14T09:19:47.352Z,6.90
2023-05-14T09:22:15.975Z,8.00
2023-05-14T09:24:43.178Z,7.00
2023-05-14T09:27:15.246Z,10.00
2023-05-14T09:29:41.851Z,3.90
2023-05-14T09:32:10.274Z,5.30
2023-05-14T09:34:39.699Z,5.10
2023-05-14T09:37:08.016Z,4.80
2023-05-14T09:39:36.502Z,3.00
2023-05-14T09:42:03.784Z,2.20
2023-05-14T09:44:30.726Z,5.60
2023-05-14T09:46:57.620Z,4.90
2023-05-14T09:49:24.215Z,5.30
2023-05-14T09:51:51.583Z,7.30
2023-05-14T09:54:18.252Z,2.80
2023-05-14T09:56:44.969Z,4.00
2023-05-14T09:59:11.662Z,3.80
2023-05-14T10:01:38.621Z,3.00
2023-05-14T10:04:08.188Z,6.70
2023-05-14T10:06:39.325Z,5.50
2023-05-14T10:09:12.372Z,4.80
2023-05-14T10:11:43.623Z,4.70
2023-05-14T10:14:20.714Z,6.00
2023-05-14T10:16:51.087Z,3.20
2023-05-14T10:19:20.805Z,3.30
2023-05-14T10:21:59.778Z,6.10
2023-05-14T10:24:27.482Z,3.00
2023-05-14T10:26:54.321Z,3.50
2023-05-14T10:29:31.484Z,3.30
2023-05-14T10:31:58.007Z,1.90
2023-05-14T10:34:34.571Z,3.70
2023-05-14T10:37:02.369Z,3.70
2023-05-14T10:39:49.634Z,2.90
2023-05-14T10:42:21.719Z,2.80
2023-05-14T10:45:01.531Z,2.50
2023-05-14T10:47:29.521Z,3.90
2023-05-14T10:50:03.788Z,2.30
2023-05-14T10:52:31.064Z,5.70
2023-05-14T10:55:03.691Z,3.40
2023-05-14T10:57:32.309Z,4.70
2023-05-14T11:00:03.174Z,4.40
2023-05-14T11:02:41.253Z,2.40
2023-05-14T11:05:11.034Z,8.20
2023-05-14T11:07:38.517Z,6.70
2023-05-14T11:10:10.239Z,6.80
2023-05-14T11:12:40.941Z,3.40
2023-05-14T11:15:13.296Z,4.30
2023-05-14T11:17:41.650Z,4.40
2023-05-14T11:20:09.610Z,4.50
2023-05-14T11:22:37.436Z,4.20
2023-05-14T11:25:04.861Z,7.30
2023-05-14T11:27:33.591Z,4.80
2023-05-14T11:30:01.051Z,3.90
2023-05-14T11:32:27.858Z,7.30
2023-05-14T11:34:54.587Z,2.10
2023-05-14T11:37:24.136Z,3.30
2023-05-14T11:39:52.852Z,5.50
2023-05-14T11:42:20.855Z,2.20
2023-05-14T11:44:49.080Z,5.70
2023-05-14T11:47:18.262Z,2.80
2023-05-14T11:49:45.885Z,3.20
2023-05-14T11:52:14.859Z,4.00
2023-05-14T11:54:43.039Z,2.20
2023-05-14T11:57:12.596Z,4.80
2023-05-14T11:59:39.888Z,3.50
2023-05-14T12:02:10.599Z,5.20
2023-05-14T12:04:37.391Z,7.20
2023-05-14T12:07:12.877Z,6.60
2023-05-14T12:09:44.207Z,4.80
2023-05-14T12:12:12.874Z,4.40
2023-05-14T12:14:45.410Z,3.30
2023-05-14T12:17:14.969Z,3.40
2023-05-14T12:22:11.005Z,2.40
2023-05-14T12:24:39.179Z,2.10
2023-05-14T12:27:07.402Z,3.30
2023-05-14T12:29:41.334Z,2.30
2023-05-14T12:32:09.321Z,1.90
2023-05-14T12:34:37.888Z,3.90
2023-05-14T12:37:05.583Z,3.10
2023-05-14T12:39:35.660Z,3.10
2023-05-14T12:42:02.427Z,3.90
2023-05-14T12:44:29.114Z,4.10
2023-05-14T12:46:56.045Z,4.80
2023-05-14T12:49:22.750Z,5.90
2023-05-14T12:51:51.209Z,4.30
2023-05-14T12:54:24.352Z,5.70
2023-05-14T12:56:50.967Z,5.00
2023-05-14T12:59:17.612Z,5.50
2023-05-14T13:01:44.273Z,3.50
2023-05-14T13:04:14.416Z,3.70
2023-05-14T13:06:41.346Z,2.40
2023-05-14T13:09:08.753Z,6.30
2023-05-14T13:11:35.712Z,8.30
2023-05-14T13:14:02.568Z,3.00
2023-05-14T13:16:30.122Z,3.20
2023-05-14T13:18:56.812Z,4.80
2023-05-14T13:21:23.378Z,2.20
2023-05-14T13:23:49.923Z,2.10
2023-05-14T13:26:16.491Z,6.40
2023-05-14T13:28:43.328Z,4.10
2023-05-14T13:31:11.930Z,3.10
2023-05-14T13:33:40.883Z,2.60
2023-05-14T13:36:08.438Z,7.50
2023-05-14T13:38:35.418Z,4.20
2023-05-14T13:41:02.721Z,6.40
2023-05-14T13:43:33.921Z,5.80
2023-05-14T13:46:01.562Z,5.90
2023-05-14T13:48:28.481Z,5.10
2023-05-14T13:50:55.163Z,5.00
2023-05-14T13:53:23.117Z,4.10
2023-05-14T13:55:50.410Z,4.00
2023-05-14T13:58:17.227Z,3.50
2023-05-14T14:00:43.907Z,6.50
2023-05-14T14:03:10.715Z,4.50
2023-05-14T14:05:37.701Z,5.80
2023-05-14T14:08:17.769Z,3.70
2023-05-14T14:10:49.834Z,6.20
2023-05-14T14:13:16.447Z,3.40
2023-05-14T14:15:43.691Z,2.40
2023-05-14T14:18:10.469Z,2.40
2023-05-14T14:20:37.191Z,7.40
2023-05-14T14:23:03.927Z,5.10
2023-05-14T14:25:30.630Z,4.80
2023-05-14T14:27:57.354Z,9.50
2023-05-14T14:30:24.052Z,4.50
2023-05-14T14:32:51.190Z,2.20
2023-05-14T14:35:19.381Z,4.50
2023-05-14T14:37:49.347Z,4.00
2023-05-14T14:40:17.172Z,6.60
2023-05-14T14:42:44.378Z,3.80
2023-05-14T14:45:12.119Z,3.00
2023-05-14T14:47:38.976Z,4.70
2023-05-14T14:50:06.486Z,2.20
2023-05-14T14:52:33.207Z,3.00
2023-05-14T14:54:59.816Z,10.70
2023-05-14T14:57:26.879Z,6.40
2023-05-14T14:59:53.468Z,4.50
2023-05-14T15:02:20.264Z,5.10
2023-05-14T15:04:46.898Z,3.50
2023-05-14T15:07:15.937Z,2.10
2023-05-14T15:09:43.357Z,5.60
2023-05-14T15:12:11.185Z,8.30
2023-05-14T15:14:37.831Z,2.80
2023-05-14T15:17:04.619Z,4.90
2023-05-14T15:19:32.282Z,2.20
2023-05-14T15:21:58.861Z,4.30
2023-05-14T15:24:26.174Z,7.10
2023-05-14T15:26:53.661Z,2.80
2023-05-14T15:29:20.530Z,2.60
2023-05-14T15:31:47.271Z,7.50
2023-05-14T15:34:14.000Z,4.70
2023-05-14T15:36:40.812Z,6.70
2023-05-14T15:39:10.298Z,4.20
2023-05-14T15:41:38.124Z,2.50
2023-05-14T15:44:05.024Z,7.40
2023-05-14T15:46:32.193Z,3.40
2023-05-14T15:48:58.769Z,1.80
2023-05-14T15:51:25.477Z,2.70
2023-05-14T15:53:54.096Z,6.80
2023-05-14T15:56:23.794Z,7.90
2023-05-14T15:58:50.536Z,4.80
2023-05-14T16:01:19.371Z,6.50
2023-05-14T16:03:46.159Z,6.70
2023-05-14T16:06:13.048Z,2.80
2023-05-14T16:08:39.698Z,5.90
2023-05-14T16:11:07.585Z,3.60
2023-05-14T16:13:37.597Z,5.00
2023-05-14T16:16:04.398Z,3.50
2023-05-14T16:18:31.112Z,6.00
2023-05-14T16:20:57.815Z,8.20
2023-05-14T16:23:24.367Z,4.40
2023-05-14T16:25:51.079Z,4.30
2023-05-14T16:28:17.672Z,3.50
2023-05-14T16:30:47.259Z,3.50
2023-05-14T16:33:13.904Z,6.50
2023-05-14T16:35:40.504Z,5.90
2023-05-14T16:38:07.118Z,4.40
2023-05-14T16:40:33.677Z,5.10
2023-05-14T16:43:00.376Z,3.20
2023-05-14T16:45:27.198Z,4.40
2023-05-14T16:47:54.153Z,5.90
2023-05-14T16:50:20.967Z,12.10
2023-05-14T16:52:47.595Z,5.80
2023-05-14T16:55:14.296Z,6.40
2023-05-14T16:57:41.039Z,5.80
2023-05-14T17:00:09.882Z,6.00
2023-05-14T17:02:36.978Z,4.90
2023-05-14T17:05:04.164Z,4.50
2023-05-14T17:07:31.439Z,5.60
2023-05-14T17:09:58.610Z,8.30
2023-05-14T17:12:26.098Z,3.40
2023-05-14T17:14:53.071Z,3.50
2023-05-14T17:17:19.600Z,4.50
2023-05-14T17:19:46.261Z,5.00
2023-05-14T17:22:15.807Z,9.50
2023-05-14T17:24:42.397Z,5.20
2023-05-14T17:27:09.129Z,7.40
2023-05-14T17:29:35.721Z,6.10
2023-05-14T17:32:03.645Z,8.30
2023-05-14T17:34:30.495Z,6.50
2023-05-14T17:36:57.384Z,6.90
2023-05-14T17:39:24.019Z,4.30
2023-05-14T17:41:50.607Z,9.20
2023-05-14T17:44:17.192Z,7.00
2023-05-14T17:46:44.667Z,6.40
2023-05-14T17:49:11.991Z,4.90
2023-05-14T17:51:38.539Z,5.50
2023-05-14T17:54:05.200Z,6.40
2023-05-14T17:56:31.864Z,3.90
2023-05-14T17:58:58.537Z,6.70
2023-05-14T18:01:25.133Z,5.20
2023-05-14T18:03:52.269Z,7.00
2023-05-14T18:06:18.899Z,7.10
2023-05-14T18:08:45.479Z,3.90
2023-05-14T18:11:12.349Z,9.70
2023-05-14T18:13:38.949Z,9.10
2023-05-14T18:16:05.736Z,12.50
2023-05-14T18:18:32.378Z,8.90
2023-05-14T18:20:59.133Z,11.40
2023-05-14T18:23:25.742Z,11.50
2023-05-14T18:25:52.381Z,12.10
2023-05-14T18:28:21.339Z,7.50
2023-05-14T18:30:49.337Z,9.30
2023-05-14T18:33:16.202Z,7.60
2023-05-14T18:35:43.716Z,6.80
2023-05-14T18:38:11.855Z,10.80
2023-05-14T18:40:38.533Z,6.00
2023-05-14T18:43:05.225Z,11.80
2023-05-14T18:45:31.882Z,10.30
2023-05-14T18:47:58.558Z,11.30
2023-05-14T18:50:25.099Z,14.40
2023-05-14T18:52:51.653Z,15.40
2023-05-14T18:55:18.290Z,16.30
2023-05-14T18:57:44.934Z,12.80
2023-05-14T19:00:14.332Z,13.20
2023-05-14T19:02:41.405Z,20.00
2023-05-14T19:05:08.349Z,19.40
2023-05-14T19:07:35.063Z,18.70
2023-05-14T19:10:01.689Z,26.10
2023-05-14T19:12:29.489Z,21.60
2023-05-14T19:14:56.093Z,21.60
2023-05-14T19:17:22.778Z,20.30
2023-05-14T19:19:49.418Z,20.20
2023-05-14T19:22:18.585Z,23.10
2023-05-14T19:24:45.114Z,30.40
2023-05-14T19:27:16.039Z,17.70
2023-05-14T19:29:43.661Z,14.90
2023-05-14T19:32:10.542Z,16.70
2023-05-14T19:34:37.149Z,12.80
2023-05-14T19:37:04.662Z,18.80
2023-05-14T19:39:31.520Z,15.60
2023-05-14T19:41:59.398Z,14.50
2023-05-14T19:44:26.024Z,16.20
2023-05-14T19:46:52.720Z,17.30
2023-05-14T19:49:19.367Z,17.60
2023-05-14T19:51:46.007Z,13.70
2023-05-14T19:54:12.648Z,19.00
2023-05-14T19:56:39.248Z,20.90
2023-05-14T19:59:05.961Z,17.50
2023-05-14T20:01:34.334Z,16.00
2023-05-14T20:04:01.236Z,16.20
2023-05-14T20:06:28.058Z,18.40
2023-05-14T20:08:55.333Z,20.80
2023-05-14T20:11:21.936Z,22.50
2023-05-14T20:13:49.707Z,21.60
2023-05-14T20:16:16.884Z,20.10
2023-05-14T20:18:44.303Z,20.20
2023-05-14T20:21:11.044Z,21.60
2023-05-14T20:23:37.760Z,16.40
2023-05-14T20:26:04.618Z,20.50
2023-05-14T20:28:31.471Z,18.30
2023-05-14T20:31:02.928Z,20.30
2023-05-14T20:33:30.752Z,17.50
2023-05-14T20:35:57.490Z,18.20
2023-05-14T20:38:25.659Z,18.20
2023-05-14T20:40:52.210Z,30.30
2023-05-14T20:43:18.826Z,19.80
2023-05-14T20:45:45.482Z,26.20
2023-05-14T20:48:16.096Z,17.00
2023-05-14T20:50:43.311Z,16.60
2023-05-14T20:53:09.967Z,16.40
2023-05-14T20:55:36.695Z,13.30
2023-05-14T20:58:03.457Z,15.70
2023-05-14T21:00:30.276Z,11.30
2023-05-14T21:02:57.396Z,10.60
2023-05-14T21:05:24.884Z,14.50
2023-05-14T21:07:51.725Z,9.40
2023-05-14T21:10:18.581Z,11.50
2023-05-14T21:12:45.290Z,15.20
2023-05-14T21:15:11.989Z,11.30
2023-05-14T21:17:38.700Z,9.80
2023-05-14T21:20:06.343Z,10.60
2023-05-14T21:22:33.111Z,7.20
2023-05-14T21:24:59.728Z,7.70
2023-05-14T21:27:26.713Z,8.70
2023-05-14T21:29:53.432Z,9.50
2023-05-14T21:32:22.128Z,7.00
2023-05-14T21:34:49.240Z,7.20
2023-05-14T21:37:15.936Z,10.60
2023-05-14T21:39:42.446Z,7.00
2023-05-14T21:42:09.629Z,8.50
2023-05-14T21:44:36.303Z,10.90
2023-05-14T21:47:03.852Z,11.80
2023-05-14T21:49:30.605Z,6.80
2023-05-14T21:51:57.354Z,7.60
2023-05-14T21:54:24.090Z,6.90
2023-05-14T21:56:50.946Z,6.70
2023-05-14T21:59:17.629Z,8.40
2023-05-14T22:04:13.890Z,6.10
2023-05-14T22:06:40.895Z,8.80
2023-05-14T22:09:10.633Z,6.00
2023-05-14T22:14:03.971Z,8.00
2023-05-14T22:16:30.723Z,5.00
2023-05-14T22:18:57.421Z,6.10
2023-05-14T22:21:24.073Z,6.50
2023-05-14T22:23:50.728Z,7.30
2023-05-14T22:26:17.355Z,5.40
2023-05-14T22:28:43.903Z,7.70
2023-05-14T22:31:10.710Z,9.30
2023-05-14T22:33:37.387Z,7.40
2023-05-14T22:36:06.894Z,6.90
2023-05-14T22:38:34.074Z,5.80
2023-05-14T22:41:00.642Z,7.50
2023-05-14T22:43:27.225Z,4.90
2023-05-14T22:45:53.803Z,5.10
2023-05-14T22:48:20.293Z,8.80
2023-05-14T22:50:46.774Z,5.40
2023-05-14T22:53:13.514Z,7.40
2023-05-14T22:55:40.107Z,6.70
2023-05-14T22:58:07.055Z,5.10
2023-05-14T23:00:33.608Z,6.80
2023-05-14T23:03:00.332Z,7.40
2023-05-14T23:05:27.235Z,7.90
2023-05-14T23:07:55.320Z,4.90
2023-05-14T23:10:21.961Z,6.00
2023-05-14T23:12:48.479Z,5.30
2023-05-14T23:15:15.240Z,6.60
2023-05-14T23:17:42.004Z,5.30
2023-05-14T23:20:12.595Z,5.70
2023-05-14T23:22:40.143Z,6.70
2023-05-14T23:25:07.700Z,5.80
2023-05-14T23:27:34.932Z,5.60
2023-05-14T23:30:03.086Z,3.90
2023-05-14T23:32:29.846Z,8.30
2023-05-14T23:34:56.368Z,4.00
2023-05-14T23:37:23.203Z,4.60
2023-05-14T23:39:50.105Z,8.80
2023-05-14T23:42:16.669Z,10.00
2023-05-14T23:44:43.363Z,6.90
2023-05-14T23:47:10.148Z,8.70
2023-05-14T23:49:36.857Z,11.20
2023-05-14T23:52:03.546Z,6.30
2023-05-14T23:54:30.179Z,5.00
2023-05-14T23:56:56.745Z,5.20
2023-05-14T23:59:23.270Z,5.60
